Bouzas — EAPC — position and weather

sailwx.info

Track history (hours):
 
Tides and Currents Weather Stations Pressure Air Temp Water Temp Dewpoint Dewpoint Depression Visibility Wind Speed Wind Dir Waves Ship Positions

Bouzas

Last reported at 2015-Jan-30 02:33 UTC. Time now 2015-Jan-30 02:38 UTC.
Position N 40°59' E 002°03'.

Length 142 m; draft 5.6 m.

Type: Cargo ship. MMSI: 224029000.

Date/timePositionNaut miles runAvg speedWind from/ knotsBaromVisibWave heightAir tempDewpointWater temp
2015-Jan-30 02:33N 40°59' E 002°03'1212.3
2015-Jan-30 01:33N 40°48' E 001°56'1212.2
2015-Jan-30 00:33N 40°37' E 001°48'1312.8
2015-Jan-29 23:33N 40°26' E 001°40'1312.8
2015-Jan-29 22:33N 40°14' E 001°33'1312.9
2015-Jan-29 21:33N 40°03' E 001°24'1312.6
2015-Jan-29 20:34N 39°53' E 001°16'1312.5
2015-Jan-29 19:33N 39°41' E 001°08'11814.7
2015-Jan-29 11:33N 37°60' W 000°08'1717.2
2015-Jan-29 10:33N 37°46' W 000°20'1717.4
2015-Jan-29 09:33N 37°32' W 000°33'1717.1
2015-Jan-29 08:33N 37°20' W 000°49'2018.0
2015-Jan-29 07:26N 37°07' W 001°08'20817.5
2015-Jan-28 19:34N 35°60' W 005°13'  
2015-Jan-24 19:16N 35°58' W 005°35'1216.5
2015-Jan-24 18:33N 36°02' W 005°21'23517.8
2015-Jan-24 05:22N 37°20' W 000°45'17019.1
2015-Jan-23 20:26N 39°42' E 001°15'1718.9
2015-Jan-23 19:33N 39°57' E 001°24'2019.7
2015-Jan-23 18:33N 40°15' E 001°35'1919.1
2015-Jan-23 17:33N 40°32' E 001°46'1918.8
2015-Jan-23 16:33N 40°49' E 001°57'1918.5
2015-Jan-23 15:31N 41°05' E 002°10'3 0.2
2015-Jan-23 03:24N 41°08' E 002°09'1113.3
2015-Jan-23 02:33N 40°58' E 002°02'1313.3
2015-Jan-23 01:33N 40°46' E 001°54'1313.1
2015-Jan-23 00:33N 40°35' E 001°46'1312.9
2015-Jan-22 23:33N 40°23' E 001°38'1212.4
2015-Jan-22 22:33N 40°13' E 001°30'1212.3
2015-Jan-22 21:33N 40°02' E 001°22'1312.6
2015-Jan-22 20:34N 39°51' E 001°14'17116.6
2015-Jan-22 10:14N 37°26' W 000°42'1617.5
2015-Jan-22 09:18N 37°15' W 000°57'21917.2
2015-Jan-21 20:33N 35°60' W 005°13'  
Track history (hours):
 
Tides and Currents Weather Stations Pressure Air Temp Water Temp Dewpoint Dewpoint Depression Visibility Wind Speed Wind Dir Waves Ship Positions

Bouzas

Last reported at 2015-Jan-30 02:33 UTC. Time now 2015-Jan-30 02:38 UTC.
Position N 40°59' E 002°03'.

Length 142 m; draft 5.6 m.

Type: Cargo ship. MMSI: 224029000.

Date/timePositionNaut miles runAvg speedWind from/ knotsBaromVisibWave heightAir tempDewpointWater temp
2015-Jan-30 02:33N 40°59' E 002°03'1212.3
2015-Jan-30 01:33N 40°48' E 001°56'1212.2
2015-Jan-30 00:33N 40°37' E 001°48'1312.8
2015-Jan-29 23:33N 40°26' E 001°40'1312.8
2015-Jan-29 22:33N 40°14' E 001°33'1312.9
2015-Jan-29 21:33N 40°03' E 001°24'1312.6
2015-Jan-29 20:34N 39°53' E 001°16'1312.5
2015-Jan-29 19:33N 39°41' E 001°08'11814.7
2015-Jan-29 11:33N 37°60' W 000°08'1717.2
2015-Jan-29 10:33N 37°46' W 000°20'1717.4
2015-Jan-29 09:33N 37°32' W 000°33'1717.1
2015-Jan-29 08:33N 37°20' W 000°49'2018.0
2015-Jan-29 07:26N 37°07' W 001°08'20817.5
2015-Jan-28 19:34N 35°60' W 005°13'  
2015-Jan-24 19:16N 35°58' W 005°35'1216.5
2015-Jan-24 18:33N 36°02' W 005°21'23517.8
2015-Jan-24 05:22N 37°20' W 000°45'17019.1
2015-Jan-23 20:26N 39°42' E 001°15'1718.9
2015-Jan-23 19:33N 39°57' E 001°24'2019.7
2015-Jan-23 18:33N 40°15' E 001°35'1919.1
2015-Jan-23 17:33N 40°32' E 001°46'1918.8
2015-Jan-23 16:33N 40°49' E 001°57'1918.5
2015-Jan-23 15:31N 41°05' E 002°10'3 0.2
2015-Jan-23 03:24N 41°08' E 002°09'1113.3
2015-Jan-23 02:33N 40°58' E 002°02'1313.3
2015-Jan-23 01:33N 40°46' E 001°54'1313.1
2015-Jan-23 00:33N 40°35' E 001°46'1312.9
2015-Jan-22 23:33N 40°23' E 001°38'1212.4
2015-Jan-22 22:33N 40°13' E 001°30'1212.3
2015-Jan-22 21:33N 40°02' E 001°22'1312.6
2015-Jan-22 20:34N 39°51' E 001°14'17116.6
2015-Jan-22 10:14N 37°26' W 000°42'1617.5
2015-Jan-22 09:18N 37°15' W 000°57'21917.2
2015-Jan-21 20:33N 35°60' W 005°13'  

Dump ship's entire track history